createdAt,value
2018-02-03T00:01:02.286Z,9.75
2018-02-03T00:02:07.989Z,10.95
2018-02-03T00:03:14.640Z,10.05
2018-02-03T00:04:20.332Z,9.32
2018-02-03T00:05:26.040Z,11.63
2018-02-03T00:06:31.783Z,11.20
2018-02-03T00:07:37.490Z,10.07
2018-02-03T00:08:43.977Z,10.00
2018-02-03T00:09:49.700Z,10.60
2018-02-03T00:10:55.397Z,9.75
2018-02-03T00:12:01.117Z,9.93
2018-02-03T00:13:06.819Z,10.65
2018-02-03T00:14:12.629Z,12.27
2018-02-03T00:15:18.399Z,10.02
2018-02-03T00:16:24.084Z,9.68
2018-02-03T00:17:29.806Z,9.82
2018-02-03T00:18:35.520Z,9.60
2018-02-03T00:19:41.992Z,10.68
2018-02-03T00:20:48.448Z,9.40
2018-02-03T00:21:54.923Z,10.38
2018-02-03T00:23:00.659Z,10.13
2018-02-03T00:24:07.124Z,9.02
2018-02-03T00:25:12.831Z,9.90
2018-02-03T00:26:18.535Z,9.75
2018-02-03T00:27:24.216Z,9.40
2018-02-03T00:28:30.712Z,10.05
2018-02-03T00:29:36.441Z,9.75
2018-02-03T00:30:42.148Z,10.82
2018-02-03T00:31:47.852Z,10.25
2018-02-03T00:32:53.557Z,11.73
2018-02-03T00:33:59.307Z,10.75
2018-02-03T00:35:05.017Z,10.40
2018-02-03T00:36:10.715Z,9.13
2018-02-03T00:37:16.448Z,11.02
2018-02-03T00:38:22.135Z,9.30
2018-02-03T00:39:28.641Z,11.38
2018-02-03T00:40:34.334Z,10.15
2018-02-03T00:41:39.921Z,10.63
2018-02-03T00:42:45.623Z,10.27
2018-02-03T00:43:52.097Z,10.50
2018-02-03T00:44:57.840Z,10.50
2018-02-03T00:46:03.532Z,9.60
2018-02-03T00:47:09.275Z,10.85
2018-02-03T00:48:14.990Z,10.60
2018-02-03T00:49:20.702Z,11.18
2018-02-03T00:50:26.428Z,10.02
2018-02-03T00:51:32.896Z,9.82
2018-02-03T00:52:39.501Z,9.63
2018-02-03T00:53:45.217Z,10.27
2018-02-03T00:54:50.935Z,10.85
2018-02-03T00:55:56.667Z,10.40
2018-02-03T00:57:03.153Z,10.50
2018-02-03T00:58:08.863Z,10.30
2018-02-03T00:59:15.448Z,10.10
2018-02-03T01:00:21.172Z,10.38
2018-02-03T01:01:27.663Z,9.70
2018-02-03T01:02:33.373Z,10.63
2018-02-03T01:03:39.839Z,10.55
2018-02-03T01:04:45.551Z,11.40
2018-02-03T01:05:52.339Z,10.35
2018-02-03T01:06:58.072Z,11.00
2018-02-03T01:08:04.552Z,10.10
2018-02-03T01:09:10.256Z,10.50
2018-02-03T01:10:16.745Z,11.12
2018-02-03T01:11:22.457Z,10.25
2018-02-03T01:12:28.964Z,9.65
2018-02-03T01:13:34.681Z,11.35
2018-02-03T01:14:41.155Z,9.80
2018-02-03T01:15:46.851Z,9.63
2018-02-03T01:16:52.544Z,9.95
2018-02-03T01:17:58.264Z,9.50
2018-02-03T01:19:03.968Z,10.48
2018-02-03T01:20:09.677Z,10.25
2018-02-03T01:21:15.521Z,10.15
2018-02-03T01:22:21.042Z,10.23
2018-02-03T01:23:26.770Z,9.82
2018-02-03T01:24:32.469Z,9.70
2018-02-03T01:25:38.181Z,10.23
2018-02-03T01:26:43.904Z,8.95
2018-02-03T01:27:49.607Z,7.60
2018-02-03T01:28:55.320Z,7.45
2018-02-03T01:30:01.012Z,6.95
2018-02-03T01:31:06.702Z,6.30
2018-02-03T01:32:12.156Z,7.55
2018-02-03T01:33:18.612Z,6.97
2018-02-03T01:34:24.081Z,6.00
2018-02-03T01:35:29.775Z,5.95
2018-02-03T01:36:35.688Z,5.22
2018-02-03T01:37:41.371Z,5.00
2018-02-03T01:38:47.051Z,4.90
2018-02-03T01:39:52.763Z,5.85
2018-02-03T01:40:59.227Z,4.90
2018-02-03T01:42:05.681Z,4.55
2018-02-03T01:43:12.162Z,4.25
2018-02-03T01:44:17.843Z,4.57
2018-02-03T01:45:23.560Z,4.53
2018-02-03T01:46:29.247Z,4.05
2018-02-03T01:47:52.714Z,3.90
2018-02-03T01:48:59.187Z,4.00
2018-02-03T01:50:04.871Z,4.82
2018-02-03T01:51:10.606Z,4.30
2018-02-03T01:52:16.290Z,4.43
2018-02-03T01:53:22.743Z,3.65
2018-02-03T01:54:29.203Z,3.85
2018-02-03T01:55:36.086Z,4.95
2018-02-03T01:56:42.555Z,4.20
2018-02-03T01:57:48.311Z,4.32
2018-02-03T01:58:54.004Z,3.95
2018-02-03T02:00:01.211Z,3.75
2018-02-03T02:01:06.904Z,4.05
2018-02-03T02:02:12.619Z,4.10
2018-02-03T02:03:18.315Z,4.12
2018-02-03T02:04:24.773Z,3.65
2018-02-03T02:05:31.237Z,4.53
2018-02-03T02:06:37.695Z,4.60
2018-02-03T02:07:44.173Z,3.97
2018-02-03T02:08:49.878Z,3.55
2018-02-03T02:09:56.360Z,3.50
2018-02-03T02:11:02.872Z,3.65
2018-02-03T02:12:08.679Z,3.78
2018-02-03T02:13:14.426Z,4.43
2018-02-03T02:14:20.123Z,4.57
2018-02-03T02:15:26.579Z,2.92
2018-02-03T02:16:33.081Z,3.50
2018-02-03T02:17:38.772Z,4.37
2018-02-03T02:18:44.502Z,3.75
2018-02-03T02:19:50.191Z,4.05
2018-02-03T02:20:55.884Z,4.25
2018-02-03T02:22:01.588Z,4.53
2018-02-03T02:23:07.266Z,3.95
2018-02-03T02:24:12.655Z,4.35
2018-02-03T02:25:18.364Z,4.50
2018-02-03T02:26:24.815Z,5.22
2018-02-03T02:27:31.307Z,4.53
2018-02-03T02:28:37.015Z,4.30
2018-02-03T02:29:46.041Z,4.90
2018-02-03T02:30:52.224Z,5.28
2018-02-03T02:31:57.931Z,4.87
2018-02-03T02:33:04.383Z,5.45
2018-02-03T02:34:10.858Z,5.75
2018-02-03T02:35:17.336Z,6.50
2018-02-03T02:36:23.062Z,6.85
2018-02-03T02:37:28.960Z,6.30
2018-02-03T02:38:34.916Z,6.10
2018-02-03T02:39:40.607Z,6.30
2018-02-03T02:40:45.759Z,6.75
2018-02-03T02:41:51.472Z,7.45
2018-02-03T02:42:57.163Z,7.72
2018-02-03T02:44:03.693Z,7.68
2018-02-03T02:45:09.399Z,7.45
2018-02-03T02:46:15.119Z,7.80
2018-02-03T02:47:21.573Z,8.20
2018-02-03T02:48:27.296Z,7.85
2018-02-03T02:49:33.197Z,7.70
2018-02-03T02:50:38.714Z,8.27
2018-02-03T02:51:44.246Z,7.93
2018-02-03T02:52:49.935Z,7.78
2018-02-03T02:53:55.624Z,7.45
2018-02-03T02:55:01.332Z,7.65
2018-02-03T02:56:07.026Z,7.15
2018-02-03T02:57:12.748Z,7.40
2018-02-03T02:58:18.328Z,7.10
2018-02-03T02:59:24.026Z,6.43
2018-02-03T03:00:30.482Z,6.10
2018-02-03T03:01:36.932Z,6.30
2018-02-03T03:02:43.643Z,5.35
2018-02-03T03:03:49.331Z,4.57
2018-02-03T03:04:55.782Z,4.87
2018-02-03T03:06:01.473Z,5.65
2018-02-03T03:07:07.163Z,4.90
2018-02-03T03:08:13.474Z,4.80
2018-02-03T03:09:19.167Z,4.75
2018-02-03T03:10:25.621Z,4.30
2018-02-03T03:11:32.089Z,4.93
2018-02-03T03:12:37.781Z,5.03
2018-02-03T03:13:43.487Z,5.55
2018-02-03T03:14:49.181Z,4.93
2018-02-03T03:15:54.867Z,5.30
2018-02-03T03:17:00.560Z,5.50
2018-02-03T03:18:07.013Z,5.75
2018-02-03T03:19:12.723Z,5.62
2018-02-03T03:20:18.506Z,4.82
2018-02-03T03:21:24.198Z,4.93
2018-02-03T03:22:29.879Z,5.65
2018-02-03T03:23:35.564Z,6.55
2018-02-03T03:24:41.282Z,6.15
2018-02-03T03:25:47.732Z,6.62
2018-02-03T03:26:54.208Z,5.78
2018-02-03T03:27:59.904Z,7.70
2018-02-03T03:29:05.254Z,5.95
2018-02-03T03:30:10.977Z,6.15
2018-02-03T03:31:16.881Z,6.47
2018-02-03T03:32:22.580Z,6.45
2018-02-03T03:33:27.710Z,5.32
2018-02-03T03:34:34.163Z,6.30
2018-02-03T03:35:39.878Z,5.47
2018-02-03T03:36:45.980Z,5.62
2018-02-03T03:37:52.441Z,5.07
2018-02-03T03:38:58.887Z,5.47
2018-02-03T03:40:05.349Z,6.05
2018-02-03T03:41:11.977Z,4.62
2018-02-03T03:42:17.668Z,5.50
2018-02-03T03:43:23.357Z,5.60
2018-02-03T03:44:29.340Z,5.30
2018-02-03T03:45:35.785Z,6.00
2018-02-03T03:46:41.603Z,4.95
2018-02-03T03:47:47.297Z,4.90
2018-02-03T03:48:52.993Z,5.10
2018-02-03T03:49:58.690Z,4.62
2018-02-03T03:51:04.379Z,4.95
2018-02-03T03:52:11.082Z,4.32
2018-02-03T03:53:16.764Z,4.00
2018-02-03T03:54:22.460Z,4.47
2018-02-03T03:55:27.963Z,4.10
2018-02-03T03:56:34.424Z,4.07
2018-02-03T03:57:40.145Z,4.97
2018-02-03T03:58:46.603Z,4.30
2018-02-03T03:59:52.310Z,4.95
2018-02-03T04:00:57.998Z,4.55
2018-02-03T04:02:03.680Z,4.75
2018-02-03T04:03:09.407Z,3.75
2018-02-03T04:04:15.141Z,4.53
2018-02-03T04:05:21.039Z,4.45
2018-02-03T04:06:26.723Z,3.62
2018-02-03T04:07:32.227Z,4.72
2018-02-03T04:08:37.772Z,3.35
2018-02-03T04:09:44.279Z,4.18
2018-02-03T04:10:49.971Z,3.53
2018-02-03T04:11:56.432Z,4.20
2018-02-03T04:13:02.561Z,3.28
2018-02-03T04:14:09.783Z,3.30
2018-02-03T04:15:15.470Z,3.70
2018-02-03T04:16:21.173Z,3.05
2018-02-03T04:17:26.862Z,3.28
2018-02-03T04:18:32.350Z,3.35
2018-02-03T04:19:38.840Z,2.72
2018-02-03T04:20:44.527Z,3.08
2018-02-03T04:21:50.993Z,3.25
2018-02-03T04:22:56.731Z,3.05
2018-02-03T04:24:03.187Z,3.70
2018-02-03T04:25:08.904Z,2.70
2018-02-03T04:26:14.589Z,2.90
2018-02-03T04:27:20.287Z,3.20
2018-02-03T04:28:26.747Z,3.30
2018-02-03T04:29:33.207Z,3.08
2018-02-03T04:30:38.739Z,3.28
2018-02-03T04:31:44.878Z,2.25
2018-02-03T04:32:51.332Z,2.62
2018-02-03T04:33:57.008Z,2.67
2018-02-03T04:35:02.712Z,2.78
2018-02-03T04:36:08.491Z,2.90
2018-02-03T04:37:14.527Z,2.55
2018-02-03T04:38:20.992Z,2.90
2018-02-03T04:39:27.447Z,2.20
2018-02-03T04:40:33.900Z,2.65
2018-02-03T04:41:40.375Z,3.20
2018-02-03T04:42:45.874Z,2.67
2018-02-03T04:43:51.576Z,2.40
2018-02-03T04:44:57.257Z,2.47
2018-02-03T04:46:02.944Z,2.20
2018-02-03T04:47:08.661Z,3.83
2018-02-03T04:48:15.125Z,3.30
2018-02-03T04:49:20.826Z,2.90
2018-02-03T04:50:26.523Z,2.72
2018-02-03T04:51:32.454Z,3.22
2018-02-03T04:52:38.927Z,3.17
2018-02-03T04:53:44.627Z,5.15
2018-02-03T04:54:51.080Z,3.65
2018-02-03T04:55:57.535Z,5.80
2018-02-03T04:57:03.240Z,4.80
2018-02-03T04:58:08.955Z,5.00
2018-02-03T04:59:14.654Z,4.82
2018-02-03T05:00:20.631Z,5.37
2018-02-03T05:01:26.337Z,9.00
2018-02-03T05:02:32.013Z,7.25
2018-02-03T05:03:38.483Z,5.37
2018-02-03T05:04:44.412Z,4.80
2018-02-03T05:05:49.982Z,3.90
2018-02-03T05:06:55.687Z,5.70
2018-02-03T05:08:02.867Z,3.80
2018-02-03T05:09:09.348Z,5.50
2018-02-03T05:10:15.039Z,4.28
2018-02-03T05:11:21.494Z,3.87
2018-02-03T05:12:27.188Z,9.30
2018-02-03T05:13:32.881Z,4.95
2018-02-03T05:14:39.576Z,3.80
2018-02-03T05:15:45.263Z,3.80
2018-02-03T05:16:50.959Z,3.50
2018-02-03T05:17:56.414Z,3.67
2018-02-03T05:19:02.120Z,4.47
2018-02-03T05:20:08.606Z,4.93
2018-02-03T05:21:13.386Z,4.80
2018-02-03T05:22:19.848Z,4.75
2018-02-03T05:23:26.358Z,5.78
2018-02-03T05:24:31.708Z,4.37
2018-02-03T05:25:37.419Z,4.65
2018-02-03T05:26:43.109Z,4.90
2018-02-03T05:27:49.559Z,5.25
2018-02-03T05:28:55.251Z,5.90
2018-02-03T05:30:00.603Z,5.75
2018-02-03T05:31:06.315Z,5.10
2018-02-03T05:32:11.990Z,5.72
2018-02-03T05:33:17.361Z,6.10
2018-02-03T05:34:23.621Z,5.72
2018-02-03T05:35:29.862Z,5.57
2018-02-03T05:36:36.350Z,6.05
2018-02-03T05:37:41.869Z,5.40
2018-02-03T05:38:48.136Z,6.22
2018-02-03T05:39:53.642Z,6.37
2018-02-03T05:40:59.564Z,6.18
2018-02-03T05:42:05.279Z,6.05
2018-02-03T05:43:10.773Z,6.65
2018-02-03T05:44:17.040Z,7.05
2018-02-03T05:45:22.551Z,5.50
2018-02-03T05:46:28.843Z,6.07
2018-02-03T05:47:34.789Z,6.80
2018-02-03T05:48:40.301Z,5.87
2018-02-03T05:49:46.562Z,4.95
2018-02-03T05:50:53.018Z,6.43
2018-02-03T05:51:59.464Z,5.65
2018-02-03T05:53:05.755Z,5.45
2018-02-03T05:54:11.432Z,5.55
2018-02-03T05:55:17.124Z,5.55
2018-02-03T05:56:22.643Z,6.82
2018-02-03T05:57:29.304Z,5.68
2018-02-03T05:58:35.785Z,6.55
2018-02-03T05:59:41.669Z,5.78
2018-02-03T06:00:47.162Z,6.32
2018-02-03T06:01:52.863Z,6.72
2018-02-03T06:02:59.304Z,5.75
2018-02-03T06:04:04.805Z,5.95
2018-02-03T06:05:10.502Z,6.80
2018-02-03T06:06:17.004Z,6.55
2018-02-03T06:07:22.696Z,7.20
2018-02-03T06:08:28.383Z,6.80
2018-02-03T06:09:34.095Z,6.07
2018-02-03T06:10:40.555Z,6.50
2018-02-03T06:11:47.024Z,6.30
2018-02-03T06:12:52.789Z,6.95
2018-02-03T06:13:58.475Z,6.20
2018-02-03T06:15:04.185Z,6.03
2018-02-03T06:16:09.896Z,7.10
2018-02-03T06:17:15.597Z,7.07
2018-02-03T06:18:20.951Z,6.50
2018-02-03T06:19:26.676Z,7.57
2018-02-03T06:20:33.159Z,7.03
2018-02-03T06:21:38.548Z,7.53
2018-02-03T06:22:44.230Z,6.85
2018-02-03T06:23:49.932Z,7.18
2018-02-03T06:24:56.374Z,6.62
2018-02-03T06:26:02.095Z,7.00
2018-02-03T06:27:08.109Z,8.00
2018-02-03T06:28:14.553Z,6.37
2018-02-03T06:29:21.044Z,7.93
2018-02-03T06:30:26.735Z,7.18
2018-02-03T06:31:31.795Z,6.28
2018-02-03T06:32:37.483Z,7.65
2018-02-03T06:33:43.176Z,6.82
2018-02-03T06:34:48.871Z,8.02
2018-02-03T06:35:55.347Z,7.60
2018-02-03T06:37:01.839Z,8.25
2018-02-03T06:38:07.540Z,7.40
2018-02-03T06:39:13.037Z,6.57
2018-02-03T06:40:18.726Z,7.85
2018-02-03T06:41:25.300Z,7.72
2018-02-03T06:42:31.788Z,7.10
2018-02-03T06:43:37.474Z,7.40
2018-02-03T06:44:43.176Z,6.90
2018-02-03T06:45:48.876Z,8.13
2018-02-03T06:46:54.576Z,7.80
2018-02-03T06:48:00.312Z,8.02
2018-02-03T06:49:06.007Z,8.45
2018-02-03T06:50:11.738Z,7.22
2018-02-03T06:51:18.190Z,8.30
2018-02-03T06:52:24.712Z,7.90
2018-02-03T06:53:30.446Z,9.60
2018-02-03T06:54:36.157Z,8.05
2018-02-03T06:55:41.854Z,9.32
2018-02-03T06:56:47.547Z,9.75
2018-02-03T06:57:53.251Z,9.23
2018-02-03T06:58:58.984Z,9.27
2018-02-03T07:00:04.580Z,10.77
2018-02-03T07:01:10.280Z,9.80
2018-02-03T07:02:15.984Z,9.43
2018-02-03T07:03:23.192Z,8.27
2018-02-03T07:04:29.682Z,9.02
2018-02-03T07:05:35.391Z,8.38
2018-02-03T07:06:41.088Z,9.55
2018-02-03T07:07:46.787Z,8.55
2018-02-03T07:08:51.805Z,9.07
2018-02-03T07:09:57.340Z,8.73
2018-02-03T07:11:03.031Z,8.45
2018-02-03T07:12:08.817Z,8.70
2018-02-03T07:13:15.272Z,8.43
2018-02-03T07:14:20.981Z,8.10
2018-02-03T07:15:27.816Z,8.43
2018-02-03T07:16:33.499Z,7.97
2018-02-03T07:17:39.793Z,7.87
2018-02-03T07:18:45.480Z,9.07
2018-02-03T07:19:51.964Z,9.48
2018-02-03T07:20:58.441Z,9.10
2018-02-03T07:22:04.146Z,9.05
2018-02-03T07:23:10.608Z,8.95
2018-02-03T07:24:16.903Z,9.93
2018-02-03T07:25:22.441Z,7.80
2018-02-03T07:26:28.161Z,10.63
2018-02-03T07:27:33.856Z,8.63
2018-02-03T07:28:39.046Z,8.70
2018-02-03T07:29:44.557Z,8.20
2018-02-03T07:30:50.413Z,9.38
2018-02-03T07:31:55.954Z,9.00
2018-02-03T07:34:00.859Z,8.80
2018-02-03T07:35:06.987Z,10.30
2018-02-03T07:36:13.473Z,9.65
2018-02-03T07:37:19.964Z,8.30
2018-02-03T07:38:25.688Z,11.30
2018-02-03T07:39:31.607Z,12.00
2018-02-03T07:40:38.292Z,15.25
2018-02-03T07:41:44.039Z,11.77
2018-02-03T07:42:49.780Z,10.88
2018-02-03T07:43:55.514Z,10.68
2018-02-03T07:45:01.204Z,9.98
2018-02-03T07:46:06.904Z,9.85
2018-02-03T07:47:12.615Z,10.15
2018-02-03T07:48:19.112Z,10.63
2018-02-03T07:49:24.821Z,10.15
2018-02-03T07:50:30.526Z,9.60
2018-02-03T07:51:36.229Z,9.02
2018-02-03T07:52:41.923Z,9.02
2018-02-03T07:53:47.721Z,9.65
2018-02-03T07:54:53.429Z,9.82
2018-02-03T07:55:59.132Z,10.38
2018-02-03T07:57:04.850Z,10.38
2018-02-03T07:58:10.574Z,10.57
2018-02-03T07:59:16.301Z,9.25
2018-02-03T08:00:21.810Z,9.68
2018-02-03T08:01:28.279Z,9.63
2018-02-03T08:02:34.749Z,8.65
2018-02-03T08:03:40.103Z,8.50
2018-02-03T08:04:45.833Z,9.13
2018-02-03T08:05:51.562Z,9.02
2018-02-03T08:06:58.013Z,9.20
2018-02-03T08:08:04.505Z,8.68
2018-02-03T08:09:10.223Z,9.15
2018-02-03T08:10:15.412Z,10.43
2018-02-03T08:11:21.143Z,8.73
2018-02-03T08:12:26.839Z,9.13
2018-02-03T08:13:32.541Z,9.50
2018-02-03T08:14:39.001Z,8.02
2018-02-03T08:15:44.723Z,8.48
2018-02-03T08:16:50.412Z,8.45
2018-02-03T08:17:56.123Z,7.78
2018-02-03T08:19:01.828Z,8.43
2018-02-03T08:20:09.103Z,8.32
2018-02-03T08:21:14.864Z,8.05
2018-02-03T08:22:20.549Z,7.97
2018-02-03T08:23:26.279Z,9.02
2018-02-03T08:24:32.148Z,8.45
2018-02-03T08:25:37.852Z,8.80
2018-02-03T08:26:44.361Z,8.25
2018-02-03T08:27:50.049Z,7.87
2018-02-03T08:28:56.276Z,8.02
2018-02-03T08:30:02.056Z,6.97
2018-02-03T08:31:07.633Z,8.63
2018-02-03T08:32:13.350Z,8.88
2018-02-03T08:33:18.190Z,8.23
2018-02-03T08:34:23.881Z,9.27
2018-02-03T08:35:30.351Z,7.35
2018-02-03T08:36:36.485Z,8.63
2018-02-03T08:37:42.231Z,8.05
2018-02-03T08:38:48.116Z,8.13
2018-02-03T08:39:54.044Z,8.05
2018-02-03T08:41:00.366Z,7.65
2018-02-03T08:42:06.412Z,6.70
2018-02-03T08:43:13.396Z,7.85
2018-02-03T08:44:20.101Z,12.10
2018-02-03T08:45:26.841Z,8.50
2018-02-03T08:46:32.978Z,8.50
2018-02-03T08:47:39.846Z,8.38
2018-02-03T08:48:46.823Z,8.35
2018-02-03T08:49:53.592Z,8.10
2018-02-03T08:51:00.256Z,8.20
2018-02-03T08:52:06.727Z,7.60
2018-02-03T08:53:12.421Z,7.00
2018-02-03T08:54:19.115Z,7.35
2018-02-03T08:55:25.938Z,8.65
2018-02-03T08:56:33.485Z,9.98
2018-02-03T08:57:39.326Z,10.52
2018-02-03T08:58:45.213Z,7.93
2018-02-03T08:59:52.369Z,8.15
2018-02-03T09:00:57.720Z,7.95
2018-02-03T09:02:07.682Z,7.53
2018-02-03T09:03:14.491Z,8.30
2018-02-03T09:04:21.382Z,7.55
2018-02-03T09:05:28.431Z,8.73
2018-02-03T09:06:34.479Z,9.60
2018-02-03T09:07:40.361Z,9.18
2018-02-03T09:08:46.370Z,10.80
2018-02-03T09:09:52.472Z,7.80
2018-02-03T09:10:58.418Z,11.35
2018-02-03T09:12:06.861Z,11.88
2018-02-03T09:13:14.584Z,9.85
2018-02-03T09:14:21.382Z,8.35
2018-02-03T09:15:27.357Z,8.90
2018-02-03T09:16:33.393Z,9.65
2018-02-03T09:17:40.911Z,8.02
2018-02-03T09:18:47.993Z,8.63
2018-02-03T09:19:53.783Z,8.00
2018-02-03T09:20:59.714Z,8.23
2018-02-03T09:22:07.284Z,7.93
2018-02-03T09:23:13.392Z,8.93
2018-02-03T09:24:19.455Z,8.68
2018-02-03T09:25:25.708Z,7.95
2018-02-03T09:26:32.706Z,9.80
2018-02-03T09:27:39.780Z,9.25
2018-02-03T09:28:46.063Z,8.50
2018-02-03T09:29:52.633Z,9.82
2018-02-03T09:30:59.516Z,8.32
2018-02-03T09:32:05.572Z,8.55
2018-02-03T09:33:11.845Z,8.52
2018-02-03T09:34:18.058Z,8.63
2018-02-03T09:35:24.268Z,8.75
2018-02-03T09:36:30.647Z,9.00
2018-02-03T09:37:39.877Z,10.00
2018-02-03T09:38:47.980Z,10.88
2018-02-03T09:39:56.843Z,8.55
2018-02-03T09:41:02.935Z,10.48
2018-02-03T09:42:09.114Z,10.32
2018-02-03T09:43:15.301Z,9.82
2018-02-03T09:44:21.096Z,10.30
2018-02-03T09:45:27.030Z,10.73
2018-02-03T09:46:33.587Z,10.98
2018-02-03T09:47:40.881Z,11.88
2018-02-03T09:48:48.722Z,10.85
2018-02-03T09:49:54.966Z,10.90
2018-02-03T09:51:01.737Z,9.93
2018-02-03T09:52:07.879Z,11.02
2018-02-03T09:53:13.826Z,11.57
2018-02-03T09:54:19.813Z,9.80
2018-02-03T09:55:28.281Z,9.73
2018-02-03T09:56:34.460Z,10.07
2018-02-03T09:57:40.380Z,10.20
2018-02-03T09:58:46.728Z,11.80
2018-02-03T09:59:54.344Z,10.70
2018-02-03T10:01:00.332Z,10.05
2018-02-03T10:02:06.255Z,9.95
2018-02-03T10:03:12.171Z,8.65
2018-02-03T10:04:18.168Z,8.18
2018-02-03T10:05:24.383Z,8.52
2018-02-03T10:06:31.446Z,9.98
2018-02-03T10:07:39.598Z,8.55
2018-02-03T10:08:46.573Z,8.05
2018-02-03T10:09:53.479Z,7.43
2018-02-03T10:11:02.074Z,6.57
2018-02-03T10:12:08.422Z,7.80
2018-02-03T10:13:15.603Z,7.62
2018-02-03T10:14:21.357Z,7.35
2018-02-03T10:15:27.669Z,7.47
2018-02-03T10:16:35.637Z,7.75
2018-02-03T10:17:43.019Z,8.18
2018-02-03T10:18:49.240Z,7.65
2018-02-03T10:19:55.100Z,7.75
2018-02-03T10:21:00.821Z,7.40
2018-02-03T10:22:06.869Z,7.80
2018-02-03T10:23:13.542Z,6.47
2018-02-03T10:24:21.550Z,6.43
2018-02-03T10:25:27.392Z,7.43
2018-02-03T10:26:33.489Z,5.87
2018-02-03T10:27:40.125Z,6.43
2018-02-03T10:28:46.646Z,6.90
2018-02-03T10:29:52.632Z,6.57
2018-02-03T10:30:59.269Z,5.85
2018-02-03T10:32:05.263Z,5.80
2018-02-03T10:33:12.220Z,6.12
2018-02-03T10:34:19.045Z,5.40
2018-02-03T10:35:24.988Z,5.22
2018-02-03T10:36:31.139Z,5.47
2018-02-03T10:37:40.109Z,7.20
2018-02-03T10:38:46.866Z,4.60
2018-02-03T10:39:52.961Z,4.85
2018-02-03T10:40:59.179Z,5.35
2018-02-03T10:42:05.643Z,5.03
2018-02-03T10:43:13.063Z,5.15
2018-02-03T10:44:19.025Z,4.57
2018-02-03T10:45:26.791Z,4.97
2018-02-03T10:46:33.860Z,4.55
2018-02-03T10:47:41.188Z,6.10
2018-02-03T10:48:48.457Z,4.65
2018-02-03T10:49:54.876Z,4.95
2018-02-03T10:51:01.493Z,5.22
2018-02-03T10:52:08.471Z,6.07
2018-02-03T10:53:14.596Z,5.35
2018-02-03T10:54:20.900Z,5.25
2018-02-03T10:55:27.340Z,5.00
2018-02-03T10:56:33.742Z,5.32
2018-02-03T10:57:40.027Z,4.70
2018-02-03T10:58:47.809Z,4.97
2018-02-03T10:59:54.809Z,5.07
2018-02-03T11:01:06.334Z,6.80
2018-02-03T11:02:12.689Z,5.50
2018-02-03T11:03:19.997Z,5.03
2018-02-03T11:04:27.530Z,5.50
2018-02-03T11:05:34.214Z,7.57
2018-02-03T11:06:41.293Z,5.53
2018-02-03T11:07:47.866Z,5.80
2018-02-03T11:08:53.980Z,6.12
2018-02-03T11:10:00.277Z,5.62
2018-02-03T11:11:06.449Z,6.20
2018-02-03T11:12:12.778Z,5.43
2018-02-03T11:13:18.970Z,5.53
2018-02-03T11:14:24.820Z,4.10
2018-02-03T11:15:31.839Z,4.85
2018-02-03T11:16:37.813Z,4.70
2018-02-03T11:17:43.959Z,6.62
2018-02-03T11:18:49.606Z,4.55
2018-02-03T11:19:55.479Z,8.15
2018-02-03T11:21:03.709Z,9.65
2018-02-03T11:22:09.852Z,8.10
2018-02-03T11:23:15.666Z,5.68
2018-02-03T11:24:21.830Z,5.43
2018-02-03T11:25:27.850Z,5.25
2018-02-03T11:26:34.674Z,6.10
2018-02-03T11:27:42.637Z,5.90
2018-02-03T11:28:51.704Z,7.15
2018-02-03T11:29:58.086Z,6.53
2018-02-03T11:31:04.729Z,6.72
2018-02-03T11:32:10.623Z,7.15
2018-02-03T11:33:18.945Z,7.40
2018-02-03T11:34:24.464Z,7.20
2018-02-03T11:35:31.036Z,8.63
2018-02-03T11:36:37.538Z,7.95
2018-02-03T11:37:43.290Z,8.40
2018-02-03T11:38:48.781Z,7.53
2018-02-03T11:39:54.478Z,8.77
2018-02-03T11:41:02.393Z,7.20
2018-02-03T11:42:09.655Z,7.97
2018-02-03T11:43:15.926Z,10.77
2018-02-03T11:44:21.789Z,7.70
2018-02-03T11:45:27.973Z,7.28
2018-02-03T11:46:35.002Z,9.35
2018-02-03T11:47:40.905Z,8.60
2018-02-03T11:48:47.783Z,9.70
2018-02-03T11:49:56.248Z,9.65
2018-02-03T11:51:02.508Z,10.70
2018-02-03T11:52:07.628Z,8.90
2018-02-03T11:53:13.493Z,8.23
2018-02-03T11:54:19.597Z,8.65
2018-02-03T11:55:25.473Z,7.40
2018-02-03T11:56:31.458Z,9.05
2018-02-03T11:57:38.202Z,8.27
2018-02-03T11:58:44.620Z,8.60
2018-02-03T11:59:50.656Z,7.60
2018-02-03T12:00:56.695Z,8.23
2018-02-03T12:02:02.622Z,9.87
2018-02-03T12:03:08.663Z,7.97
2018-02-03T12:04:16.205Z,8.10
2018-02-03T12:05:22.100Z,8.82
2018-02-03T12:06:30.328Z,7.93
2018-02-03T12:07:36.475Z,9.13
2018-02-03T12:08:42.828Z,8.52
2018-02-03T12:09:49.400Z,7.90
2018-02-03T12:10:55.288Z,8.20
2018-02-03T12:12:01.190Z,8.00
2018-02-03T12:13:07.189Z,8.25
2018-02-03T12:14:13.773Z,8.70
2018-02-03T12:15:21.510Z,7.93
2018-02-03T12:16:27.168Z,7.77
2018-02-03T12:17:33.093Z,8.13
2018-02-03T12:18:39.566Z,8.63
2018-02-03T12:19:47.128Z,9.13
2018-02-03T12:20:53.889Z,9.38
2018-02-03T12:22:00.404Z,7.62
2018-02-03T12:23:06.577Z,8.65
2018-02-03T12:24:13.306Z,6.22
2018-02-03T12:25:19.352Z,6.10
2018-02-03T12:26:26.159Z,8.30
2018-02-03T12:27:33.431Z,7.00
2018-02-03T12:28:40.291Z,8.05
2018-02-03T12:29:46.063Z,6.10
2018-02-03T12:30:52.089Z,6.10
2018-02-03T12:31:57.963Z,7.25
2018-02-03T12:33:03.950Z,7.40
2018-02-03T12:34:10.760Z,5.80
2018-02-03T12:35:17.570Z,6.62
2018-02-03T12:36:23.810Z,6.00
2018-02-03T12:37:30.763Z,7.40
2018-02-03T12:38:36.883Z,6.75
2018-02-03T12:39:42.900Z,7.70
2018-02-03T12:40:49.846Z,6.62
2018-02-03T12:41:55.803Z,6.15
2018-02-03T12:43:02.588Z,10.50
2018-02-03T12:44:10.200Z,6.72
2018-02-03T12:45:17.782Z,5.65
2018-02-03T12:46:24.075Z,5.65
2018-02-03T12:47:30.147Z,10.45
2018-02-03T12:48:37.054Z,10.25
2018-02-03T12:49:43.625Z,6.60
2018-02-03T12:50:50.249Z,6.90
2018-02-03T12:51:56.500Z,5.95
2018-02-03T12:53:03.062Z,6.70
2018-02-03T12:54:09.209Z,7.15
2018-02-03T12:55:16.079Z,6.55
2018-02-03T12:56:21.980Z,7.57
2018-02-03T12:57:28.862Z,6.62
2018-02-03T12:58:36.578Z,5.60
2018-02-03T12:59:44.630Z,5.25
2018-02-03T13:00:51.543Z,5.75
2018-02-03T13:01:57.440Z,6.20
2018-02-03T13:03:03.437Z,5.93
2018-02-03T13:04:10.213Z,6.03
2018-02-03T13:05:17.433Z,5.50
2018-02-03T13:06:24.357Z,6.07
2018-02-03T13:07:30.946Z,5.85
2018-02-03T13:08:36.969Z,6.60
2018-02-03T13:09:43.463Z,6.85
2018-02-03T13:10:49.811Z,7.03
2018-02-03T13:11:57.101Z,7.22
2018-02-03T13:13:02.980Z,8.27
2018-02-03T13:14:09.625Z,7.20
2018-02-03T13:15:25.216Z,6.15
2018-02-03T13:16:43.475Z,4.93
2018-02-03T13:18:00.131Z,4.62
2018-02-03T13:19:21.028Z,4.45
2018-02-03T13:20:39.641Z,5.68
2018-02-03T13:21:57.780Z,5.65
2018-02-03T13:23:28.471Z,6.40
2018-02-03T13:24:39.589Z,10.55
2018-02-03T13:25:46.349Z,16.37
2018-02-03T13:26:54.018Z,9.35
2018-02-03T13:28:00.056Z,9.57
2018-02-03T13:29:06.621Z,8.95
2018-02-03T13:30:13.480Z,6.70
2018-02-03T13:31:19.514Z,7.78
2018-02-03T13:32:26.308Z,6.40
2018-02-03T13:33:32.352Z,5.75
2018-02-03T13:34:37.917Z,6.65
2018-02-03T13:35:43.962Z,8.00
2018-02-03T13:36:50.982Z,6.45
2018-02-03T13:37:56.957Z,6.72
2018-02-03T13:39:05.930Z,7.75
2018-02-03T13:40:14.123Z,7.75
2018-02-03T13:41:20.452Z,6.90
2018-02-03T13:42:26.807Z,7.28
2018-02-03T13:43:32.971Z,7.65
2018-02-03T13:44:39.135Z,7.32
2018-02-03T13:45:45.163Z,6.30
2018-02-03T13:46:51.390Z,5.70
2018-02-03T13:47:58.376Z,6.07
2018-02-03T13:49:04.714Z,6.00
2018-02-03T13:50:10.951Z,5.30
2018-02-03T13:51:17.010Z,6.43
2018-02-03T13:52:23.759Z,6.18
2018-02-03T13:53:30.247Z,5.53
2018-02-03T13:54:36.282Z,5.60
2018-02-03T13:55:43.364Z,6.10
2018-02-03T13:56:49.198Z,6.45
2018-02-03T13:57:55.214Z,5.30
2018-02-03T13:59:01.982Z,6.10
2018-02-03T14:00:10.277Z,5.55
2018-02-03T14:01:17.689Z,5.22
2018-02-03T14:02:23.701Z,5.12
2018-02-03T14:03:31.421Z,6.53
2018-02-03T14:04:38.602Z,5.70
2018-02-03T14:05:45.431Z,4.93
2018-02-03T14:06:52.235Z,5.95
2018-02-03T14:08:00.732Z,5.50
2018-02-03T14:09:06.305Z,5.28
2018-02-03T14:10:12.274Z,6.15
2018-02-03T14:11:18.324Z,5.18
2018-02-03T14:12:24.365Z,6.20
2018-02-03T14:13:30.412Z,5.57
2018-02-03T14:14:36.310Z,5.57
2018-02-03T14:15:42.359Z,5.68
2018-02-03T14:16:48.478Z,5.70
2018-02-03T14:17:55.188Z,5.55
2018-02-03T14:19:01.114Z,6.32
2018-02-03T14:20:07.065Z,6.10
2018-02-03T14:21:13.216Z,11.75
2018-02-03T14:22:19.146Z,5.82
2018-02-03T14:23:25.011Z,5.30
2018-02-03T14:24:36.374Z,5.40
2018-02-03T14:25:42.239Z,5.93
2018-02-03T14:26:48.679Z,6.00
2018-02-03T14:27:54.673Z,6.15
2018-02-03T14:29:01.390Z,6.60
2018-02-03T14:30:07.345Z,6.07
2018-02-03T14:31:13.124Z,6.00
2018-02-03T14:32:19.516Z,6.60
2018-02-03T14:33:26.166Z,5.93
2018-02-03T14:34:32.348Z,9.40
2018-02-03T14:35:38.285Z,8.98
2018-02-03T14:36:44.043Z,8.32
2018-02-03T14:37:50.083Z,8.40
2018-02-03T14:38:57.353Z,6.70
2018-02-03T14:40:03.274Z,5.95
2018-02-03T14:41:10.668Z,6.95